createdAt,value
2023-04-13T00:00:45.941Z,19.97
2023-04-13T00:03:20.692Z,17.13
2023-04-13T00:05:48.607Z,18.77
2023-04-13T00:08:17.099Z,17.97
2023-04-13T00:10:46.139Z,17.70
2023-04-13T00:13:14.996Z,17.80
2023-04-13T00:15:43.242Z,18.37
2023-04-13T00:18:11.227Z,18.00
2023-04-13T00:20:41.812Z,18.17
2023-04-13T00:23:10.044Z,18.67
2023-04-13T00:25:36.861Z,17.87
2023-04-13T00:28:06.240Z,18.87
2023-04-13T00:30:33.343Z,17.50
2023-04-13T00:33:03.718Z,17.30
2023-04-13T00:35:31.009Z,17.63
2023-04-13T00:37:58.849Z,17.63
2023-04-13T00:40:28.222Z,16.77
2023-04-13T00:42:55.628Z,18.33
2023-04-13T00:45:22.579Z,18.50
2023-04-13T00:47:50.837Z,17.30
2023-04-13T00:50:20.892Z,15.90
2023-04-13T00:52:48.925Z,17.30
2023-04-13T00:55:20.970Z,16.10
2023-04-13T00:57:50.264Z,17.87
2023-04-13T01:00:18.378Z,16.80
2023-04-13T01:02:45.736Z,17.53
2023-04-13T01:05:15.601Z,17.57
2023-04-13T01:07:50.370Z,17.90
2023-04-13T01:10:49.645Z,18.87
2023-04-13T01:13:26.094Z,16.73
2023-04-13T01:16:02.555Z,18.23
2023-04-13T01:18:35.512Z,20.13
2023-04-13T01:21:04.843Z,22.97
2023-04-13T01:23:57.416Z,21.87
2023-04-13T01:26:37.010Z,22.93
2023-04-13T01:29:04.695Z,24.37
2023-04-13T01:31:33.184Z,26.00
2023-04-13T01:34:00.675Z,24.90
2023-04-13T01:36:28.134Z,26.73
2023-04-13T01:38:55.226Z,23.67
2023-04-13T01:41:21.953Z,23.20
2023-04-13T01:43:49.670Z,22.07
2023-04-13T01:46:22.771Z,20.73
2023-04-13T01:49:02.498Z,21.80
2023-04-13T01:52:03.093Z,21.33
2023-04-13T01:54:33.792Z,22.00
2023-04-13T01:57:02.159Z,23.30
2023-04-13T01:59:29.496Z,23.73
2023-04-13T02:01:58.737Z,23.50
2023-04-13T02:04:26.041Z,24.37
2023-04-13T02:06:53.201Z,24.77
2023-04-13T02:09:28.311Z,24.77
2023-04-13T02:11:55.391Z,23.83
2023-04-13T02:14:22.553Z,23.37
2023-04-13T02:16:50.331Z,23.93
2023-04-13T02:19:17.464Z,23.63
2023-04-13T02:21:44.193Z,22.73
2023-04-13T02:24:11.789Z,22.17
2023-04-13T02:26:38.974Z,20.93
2023-04-13T02:29:07.834Z,23.67
2023-04-13T02:31:34.636Z,21.97
2023-04-13T02:34:01.931Z,24.30
2023-04-13T02:36:30.487Z,23.73
2023-04-13T02:39:01.858Z,25.60
2023-04-13T02:41:31.122Z,26.33
2023-04-13T02:43:58.453Z,26.47
2023-04-13T02:46:30.691Z,24.30
2023-04-13T02:49:05.866Z,23.63
2023-04-13T02:51:39.732Z,23.60
2023-04-13T02:54:10.188Z,22.93
2023-04-13T02:56:39.208Z,24.73
2023-04-13T02:59:06.655Z,23.00
2023-04-13T03:01:33.491Z,23.33
2023-04-13T03:04:02.368Z,23.80
2023-04-13T03:06:31.221Z,24.70
2023-04-13T03:09:01.722Z,24.93
2023-04-13T03:11:35.834Z,24.20
2023-04-13T03:14:21.072Z,26.70
2023-04-13T03:16:51.937Z,27.27
2023-04-13T03:19:23.268Z,27.60
2023-04-13T03:21:50.562Z,27.70
2023-04-13T03:24:22.405Z,25.90
2023-04-13T03:26:49.312Z,26.47
2023-04-13T03:29:26.263Z,27.40
2023-04-13T03:31:53.063Z,27.83
2023-04-13T03:34:20.366Z,27.63
2023-04-13T03:36:48.366Z,26.80
2023-04-13T03:39:18.778Z,28.03
2023-04-13T03:41:45.807Z,28.27
2023-04-13T03:44:12.923Z,30.77
2023-04-13T03:46:40.188Z,29.07
2023-04-13T03:49:21.562Z,28.47
2023-04-13T03:51:48.485Z,28.63
2023-04-13T03:54:15.567Z,25.47
2023-04-13T03:56:42.417Z,27.30
2023-04-13T03:59:09.654Z,28.07
2023-04-13T04:01:36.466Z,25.27
2023-04-13T04:04:04.027Z,26.97
2023-04-13T04:06:31.438Z,26.10
2023-04-13T04:09:10.200Z,27.03
2023-04-13T04:11:41.990Z,25.23
2023-04-13T04:14:10.952Z,25.47
2023-04-13T04:16:39.941Z,26.93
2023-04-13T04:19:13.691Z,26.87
2023-04-13T04:21:46.767Z,26.53
2023-04-13T04:24:23.019Z,27.27
2023-04-13T04:26:55.284Z,27.73
2023-04-13T04:29:34.030Z,26.97
2023-04-13T04:32:05.683Z,26.87
2023-04-13T04:34:32.972Z,26.93
2023-04-13T04:37:03.571Z,27.50
2023-04-13T04:39:44.132Z,25.93
2023-04-13T04:42:15.088Z,24.73
2023-04-13T04:44:44.590Z,26.13
2023-04-13T04:47:16.994Z,25.47
2023-04-13T04:50:01.861Z,23.40
2023-04-13T04:52:33.029Z,24.13
2023-04-13T04:55:01.980Z,23.30
2023-04-13T04:57:30.590Z,22.07
2023-04-13T04:59:57.828Z,22.93
2023-04-13T05:02:25.124Z,23.07
2023-04-13T05:04:53.325Z,23.70
2023-04-13T05:07:22.514Z,23.43
2023-04-13T05:09:49.676Z,24.53
2023-04-13T05:12:17.441Z,22.93
2023-04-13T05:14:48.382Z,22.00
2023-04-13T05:17:20.366Z,21.67
2023-04-13T05:19:47.633Z,21.93
2023-04-13T05:22:24.447Z,20.87
2023-04-13T05:24:57.773Z,20.63
2023-04-13T05:27:24.971Z,19.57
2023-04-13T05:29:54.485Z,18.90
2023-04-13T05:32:25.047Z,17.23
2023-04-13T05:34:54.702Z,16.73
2023-04-13T05:37:24.464Z,17.03
2023-04-13T05:39:52.126Z,17.43
2023-04-13T05:42:24.818Z,15.17
2023-04-13T05:44:52.539Z,14.53
2023-04-13T05:47:22.178Z,14.50
2023-04-13T05:49:52.530Z,13.80
2023-04-13T05:52:22.185Z,14.10
2023-04-13T05:54:50.247Z,13.37
2023-04-13T05:57:21.519Z,13.03
2023-04-13T05:59:51.909Z,13.87
2023-04-13T06:02:22.573Z,14.30
2023-04-13T06:04:53.701Z,13.80
2023-04-13T06:07:22.112Z,12.90
2023-04-13T06:09:49.620Z,13.13
2023-04-13T06:12:18.279Z,14.80
2023-04-13T06:14:45.992Z,11.85
2023-04-13T06:17:12.747Z,18.20
2023-04-13T06:19:40.415Z,12.93
2023-04-13T06:22:07.445Z,14.70
2023-04-13T06:24:37.936Z,13.73
2023-04-13T06:27:07.693Z,16.98
2023-04-13T06:29:35.080Z,15.43
2023-04-13T06:32:07.904Z,13.38
2023-04-13T06:34:36.433Z,11.90
2023-04-13T06:37:05.150Z,10.65
2023-04-13T06:39:40.525Z,11.27
2023-04-13T06:42:08.601Z,11.80
2023-04-13T06:45:01.725Z,10.57
2023-04-13T06:47:37.310Z,9.68
2023-04-13T06:50:06.599Z,9.73
2023-04-13T06:52:37.024Z,9.88
2023-04-13T06:55:05.257Z,9.75
2023-04-13T06:57:36.890Z,8.40
2023-04-13T07:00:15.373Z,7.60
2023-04-13T07:02:53.789Z,8.07
2023-04-13T07:05:21.835Z,7.55
2023-04-13T07:07:51.871Z,6.97
2023-04-13T07:10:20.580Z,9.40
2023-04-13T07:12:47.459Z,11.90
2023-04-13T07:15:15.482Z,11.48
2023-04-13T07:17:43.146Z,7.38
2023-04-13T07:20:12.549Z,7.32
2023-04-13T07:22:39.303Z,6.45
2023-04-13T07:25:07.391Z,6.57
2023-04-13T07:27:34.210Z,7.72
2023-04-13T07:30:01.633Z,9.52
2023-04-13T07:32:35.784Z,7.05
2023-04-13T07:35:04.057Z,6.53
2023-04-13T07:37:34.742Z,7.93
2023-04-13T07:40:02.149Z,6.40
2023-04-13T07:42:32.094Z,6.28
2023-04-13T07:44:59.217Z,5.93
2023-04-13T07:47:28.037Z,5.93
2023-04-13T07:49:59.540Z,6.18
2023-04-13T07:52:26.541Z,5.55
2023-04-13T07:54:53.924Z,5.07
2023-04-13T07:57:22.376Z,5.45
2023-04-13T07:59:55.839Z,5.43
2023-04-13T08:02:24.345Z,5.05
2023-04-13T08:04:54.587Z,5.22
2023-04-13T08:07:27.258Z,4.75
2023-04-13T08:09:54.077Z,5.00
2023-04-13T08:12:23.022Z,5.38
2023-04-13T08:14:52.027Z,4.80
2023-04-13T08:17:19.647Z,5.10
2023-04-13T08:19:46.456Z,5.70
2023-04-13T08:22:15.420Z,5.53
2023-04-13T08:24:42.368Z,6.60
2023-04-13T08:27:10.631Z,7.15
2023-04-13T08:29:39.130Z,6.50
2023-04-13T08:32:06.406Z,6.22
2023-04-13T08:34:33.606Z,7.53
2023-04-13T08:37:00.823Z,7.80
2023-04-13T08:39:31.859Z,8.20
2023-04-13T08:41:59.265Z,8.27
2023-04-13T08:44:31.376Z,7.85
2023-04-13T08:46:59.853Z,7.78
2023-04-13T08:49:32.640Z,7.35
2023-04-13T08:52:23.294Z,7.45
2023-04-13T08:54:54.420Z,8.57
2023-04-13T08:57:30.173Z,7.97
2023-04-13T08:59:58.534Z,7.55
2023-04-13T09:02:40.572Z,7.47
2023-04-13T09:05:17.715Z,6.93
2023-04-13T09:07:53.766Z,7.70
2023-04-13T09:10:21.888Z,8.07
2023-04-13T09:12:52.505Z,7.63
2023-04-13T09:15:19.432Z,6.28
2023-04-13T09:18:07.432Z,6.50
2023-04-13T09:20:34.877Z,7.38
2023-04-13T09:23:12.608Z,7.53
2023-04-13T09:25:39.562Z,6.78
2023-04-13T09:28:08.615Z,7.43
2023-04-13T09:30:35.550Z,6.97
2023-04-13T09:33:06.645Z,7.45
2023-04-13T09:35:34.857Z,6.22
2023-04-13T09:38:02.805Z,6.25
2023-04-13T09:40:29.820Z,6.90
2023-04-13T09:43:05.255Z,6.28
2023-04-13T09:45:36.757Z,6.00
2023-04-13T09:48:05.546Z,6.32
2023-04-13T09:50:34.816Z,7.15
2023-04-13T09:53:05.845Z,5.82
2023-04-13T09:55:34.858Z,5.03
2023-04-13T09:58:15.722Z,5.18
2023-04-13T10:00:46.549Z,5.82
2023-04-13T10:03:15.416Z,5.43
2023-04-13T10:05:57.872Z,6.80
2023-04-13T10:08:37.489Z,5.57
2023-04-13T10:11:12.642Z,5.47
2023-04-13T10:13:56.818Z,4.93
2023-04-13T10:16:43.154Z,4.53
2023-04-13T10:19:13.886Z,5.40
2023-04-13T10:21:45.313Z,4.95
2023-04-13T10:24:13.675Z,5.63
2023-04-13T10:26:41.994Z,5.28
2023-04-13T10:29:11.464Z,5.97
2023-04-13T10:31:39.925Z,6.30
2023-04-13T10:34:08.182Z,6.93
2023-04-13T10:36:44.676Z,5.40
2023-04-13T10:39:12.002Z,5.47
2023-04-13T10:41:38.967Z,5.43
2023-04-13T10:44:08.135Z,6.00
2023-04-13T10:46:36.094Z,6.75
2023-04-13T10:49:04.612Z,6.57
2023-04-13T10:51:41.339Z,6.20
2023-04-13T10:54:09.734Z,6.80
2023-04-13T10:56:37.177Z,7.30
2023-04-13T10:59:04.540Z,6.93
2023-04-13T11:01:32.047Z,6.85
2023-04-13T11:04:06.787Z,7.00
2023-04-13T11:06:39.124Z,7.07
2023-04-13T11:09:07.023Z,6.65
2023-04-13T11:11:36.556Z,5.93
2023-04-13T11:14:03.909Z,6.28
2023-04-13T11:16:31.343Z,4.90
2023-04-13T11:19:05.387Z,4.78
2023-04-13T11:21:32.338Z,5.32
2023-04-13T11:24:01.986Z,5.88
2023-04-13T11:26:38.666Z,5.20
2023-04-13T11:29:06.019Z,4.60
2023-04-13T11:31:37.517Z,5.10
2023-04-13T11:34:06.618Z,5.25
2023-04-13T11:36:33.605Z,5.38
2023-04-13T11:39:02.021Z,6.03
2023-04-13T11:41:30.126Z,4.10
2023-04-13T11:43:57.245Z,5.30
2023-04-13T11:46:27.078Z,6.05
2023-04-13T11:48:54.915Z,4.93
2023-04-13T11:51:22.307Z,5.57
2023-04-13T11:53:51.305Z,6.50
2023-04-13T11:56:18.240Z,4.55
2023-04-13T11:58:45.450Z,4.95
2023-04-13T12:01:20.299Z,5.22
2023-04-13T12:04:01.585Z,5.30
2023-04-13T12:06:35.362Z,4.57
2023-04-13T12:09:11.440Z,4.57
2023-04-13T12:11:44.700Z,4.68
2023-04-13T12:14:49.707Z,4.88
2023-04-13T12:19:46.649Z,5.20
2023-04-13T12:22:14.905Z,5.10
2023-04-13T12:24:42.891Z,5.53
2023-04-13T12:27:18.516Z,4.95
2023-04-13T12:29:46.360Z,4.57
2023-04-13T12:32:14.894Z,3.60
2023-04-13T12:34:43.948Z,4.13
2023-04-13T12:37:11.770Z,4.45
2023-04-13T12:39:39.080Z,4.65
2023-04-13T12:42:06.256Z,4.35
2023-04-13T12:44:34.348Z,4.93
2023-04-13T12:47:02.065Z,5.28
2023-04-13T12:49:29.985Z,4.75
2023-04-13T12:51:56.834Z,4.80
2023-04-13T12:54:24.068Z,4.55
2023-04-13T12:56:51.650Z,4.68
2023-04-13T12:59:21.899Z,5.40
2023-04-13T13:01:49.412Z,5.35
2023-04-13T13:04:17.558Z,5.03
2023-04-13T13:06:44.592Z,5.82
2023-04-13T13:09:11.996Z,5.18
2023-04-13T13:11:38.841Z,6.38
2023-04-13T13:14:06.281Z,6.47
2023-04-13T13:16:33.136Z,6.43
2023-04-13T13:19:00.276Z,6.15
2023-04-13T13:21:27.070Z,6.53
2023-04-13T13:23:54.119Z,7.40
2023-04-13T13:26:24.341Z,7.45
2023-04-13T13:28:53.418Z,7.35
2023-04-13T13:31:20.382Z,8.05
2023-04-13T13:33:47.533Z,7.72
2023-04-13T13:36:15.642Z,7.78
2023-04-13T13:38:43.359Z,7.28
2023-04-13T13:41:10.823Z,7.70
2023-04-13T13:43:38.669Z,7.60
2023-04-13T13:46:06.121Z,7.88
2023-04-13T13:48:35.475Z,7.93
2023-04-13T13:51:20.863Z,7.93
2023-04-13T13:53:48.567Z,9.52
2023-04-13T13:56:15.404Z,9.95
2023-04-13T13:58:42.479Z,9.18
2023-04-13T14:01:10.143Z,10.73
2023-04-13T14:03:37.634Z,9.52
2023-04-13T14:06:05.065Z,10.52
2023-04-13T14:08:32.120Z,10.20
2023-04-13T14:11:00.784Z,10.80
2023-04-13T14:13:27.893Z,9.80
2023-04-13T14:15:55.763Z,9.70
2023-04-13T14:18:23.941Z,10.80
2023-04-13T14:20:51.340Z,10.10
2023-04-13T14:23:18.446Z,9.52
2023-04-13T14:25:45.505Z,12.00
2023-04-13T14:28:12.850Z,12.00
2023-04-13T14:30:39.742Z,10.90
2023-04-13T14:33:07.613Z,12.40
2023-04-13T14:35:34.573Z,11.73
2023-04-13T14:38:01.947Z,12.43
2023-04-13T14:40:29.247Z,11.45
2023-04-13T14:42:56.454Z,11.90
2023-04-13T14:45:23.675Z,13.10
2023-04-13T14:47:53.579Z,13.90
2023-04-13T14:50:21.240Z,12.65
2023-04-13T14:52:48.417Z,12.38
2023-04-13T14:55:17.066Z,13.25
2023-04-13T14:57:45.220Z,15.07
2023-04-13T15:00:18.172Z,13.35
2023-04-13T15:02:45.779Z,13.18
2023-04-13T15:05:12.832Z,12.45
2023-04-13T15:07:40.899Z,11.57
2023-04-13T15:10:08.820Z,11.57
2023-04-13T15:12:36.400Z,11.35
2023-04-13T15:15:03.500Z,12.25
2023-04-13T15:17:30.765Z,10.05
2023-04-13T15:19:57.597Z,12.57
2023-04-13T15:22:24.756Z,12.65
2023-04-13T15:24:51.547Z,11.95
2023-04-13T15:27:18.731Z,11.55
2023-04-13T15:29:45.594Z,12.18
2023-04-13T15:32:12.743Z,11.30
2023-04-13T15:34:40.545Z,10.40
2023-04-13T15:37:07.546Z,11.20
2023-04-13T15:39:34.269Z,9.98
2023-04-13T15:42:02.214Z,10.07
2023-04-13T15:44:28.945Z,9.60
2023-04-13T15:46:56.011Z,9.00
2023-04-13T15:49:22.765Z,9.88
2023-04-13T15:51:49.754Z,8.25
2023-04-13T15:54:16.574Z,7.97
2023-04-13T15:56:44.056Z,8.20
2023-04-13T15:59:10.836Z,9.13
2023-04-13T16:01:49.117Z,10.65
2023-04-13T16:04:16.424Z,8.38
2023-04-13T16:06:43.720Z,7.45
2023-04-13T16:09:10.822Z,7.20
2023-04-13T16:11:42.173Z,8.65
2023-04-13T16:14:09.172Z,6.50
2023-04-13T16:16:46.677Z,5.90
2023-04-13T16:19:13.819Z,6.45
2023-04-13T16:21:43.461Z,5.57
2023-04-13T16:24:10.704Z,5.70
2023-04-13T16:26:38.255Z,5.68
2023-04-13T16:29:05.619Z,5.40
2023-04-13T16:31:32.742Z,5.38
2023-04-13T16:33:59.625Z,5.10
2023-04-13T16:36:27.238Z,6.03
2023-04-13T16:38:54.294Z,5.65
2023-04-13T16:41:21.384Z,6.57
2023-04-13T16:43:48.186Z,5.25
2023-04-13T16:46:16.160Z,5.13
2023-04-13T16:48:42.986Z,6.10
2023-04-13T16:51:10.064Z,5.97
2023-04-13T16:53:36.855Z,5.38
2023-04-13T16:56:04.046Z,5.68
2023-04-13T16:58:31.460Z,5.70
2023-04-13T17:00:58.795Z,7.35
2023-04-13T17:03:26.894Z,6.63
2023-04-13T17:05:55.475Z,6.15
2023-04-13T17:08:23.331Z,5.95
2023-04-13T17:10:51.223Z,6.13
2023-04-13T17:13:18.125Z,6.70
2023-04-13T17:15:45.439Z,6.28
2023-04-13T17:18:12.399Z,6.20
2023-04-13T17:20:39.759Z,6.88
2023-04-13T17:23:06.606Z,7.03
2023-04-13T17:25:35.041Z,7.35
2023-04-13T17:28:01.923Z,7.18
2023-04-13T17:30:28.990Z,6.93
2023-04-13T17:32:55.797Z,7.03
2023-04-13T17:35:22.965Z,6.82
2023-04-13T17:37:49.723Z,6.68
2023-04-13T17:40:17.263Z,7.57
2023-04-13T17:42:43.963Z,7.80
2023-04-13T17:45:11.526Z,8.00
2023-04-13T17:47:38.369Z,7.72
2023-04-13T17:50:05.951Z,7.47
2023-04-13T17:52:32.734Z,8.60
2023-04-13T17:54:59.758Z,7.72
2023-04-13T17:57:26.722Z,10.93
2023-04-13T17:59:54.620Z,8.85
2023-04-13T18:02:21.581Z,9.90
2023-04-13T18:04:48.895Z,10.32
2023-04-13T18:07:15.974Z,10.40
2023-04-13T18:09:43.012Z,10.20
2023-04-13T18:12:09.816Z,12.27
2023-04-13T18:14:36.923Z,10.73
2023-04-13T18:17:03.724Z,11.00
2023-04-13T18:19:32.587Z,11.38
2023-04-13T18:21:59.347Z,11.27
2023-04-13T18:24:26.322Z,11.18
2023-04-13T18:26:53.390Z,11.27
2023-04-13T18:29:20.272Z,11.80
2023-04-13T18:31:47.383Z,11.77
2023-04-13T18:34:14.252Z,11.50
2023-04-13T18:36:42.145Z,12.43
2023-04-13T18:39:09.002Z,12.23
2023-04-13T18:41:36.159Z,15.80
2023-04-13T18:44:03.403Z,17.02
2023-04-13T18:46:31.039Z,17.15
2023-04-13T18:48:57.987Z,16.92
2023-04-13T18:51:25.150Z,16.08
2023-04-13T18:53:52.101Z,16.88
2023-04-13T18:56:19.142Z,16.88
2023-04-13T18:58:46.074Z,16.52
2023-04-13T19:01:19.663Z,15.55
2023-04-13T19:03:47.012Z,16.05
2023-04-13T19:06:14.117Z,15.95
2023-04-13T19:08:42.539Z,14.45
2023-04-13T19:11:09.818Z,14.30
2023-04-13T19:13:36.716Z,14.07
2023-04-13T19:16:05.441Z,16.08
2023-04-13T19:18:33.269Z,15.10
2023-04-13T19:21:00.573Z,14.45
2023-04-13T19:23:27.327Z,15.65
2023-04-13T19:25:54.390Z,14.85
2023-04-13T19:28:21.298Z,14.13
2023-04-13T19:30:48.449Z,15.13
2023-04-13T19:33:15.214Z,18.02
2023-04-13T19:35:42.230Z,20.03
2023-04-13T19:38:09.648Z,21.80
2023-04-13T19:40:36.909Z,20.83
2023-04-13T19:43:03.793Z,23.13
2023-04-13T19:45:30.984Z,24.37
2023-04-13T19:47:57.823Z,27.30
2023-04-13T19:50:24.945Z,23.83
2023-04-13T19:52:53.068Z,24.42
2023-04-13T19:55:20.454Z,22.63
2023-04-13T19:57:47.304Z,22.98
2023-04-13T20:00:20.140Z,23.05
2023-04-13T20:02:49.834Z,25.33
2023-04-13T20:05:18.686Z,26.15
2023-04-13T20:07:45.728Z,28.08
2023-04-13T20:10:12.840Z,28.80
2023-04-13T20:12:39.900Z,28.85
2023-04-13T20:15:07.759Z,26.77
2023-04-13T20:17:34.660Z,24.38
2023-04-13T20:20:01.949Z,19.40
2023-04-13T20:22:29.078Z,20.90
2023-04-13T20:24:56.358Z,21.38
2023-04-13T20:27:23.334Z,20.77
2023-04-13T20:29:51.581Z,20.15
2023-04-13T20:32:18.496Z,18.58
2023-04-13T20:34:45.562Z,18.90
2023-04-13T20:37:14.376Z,19.27
2023-04-13T20:39:50.445Z,19.03
2023-04-13T20:42:18.379Z,16.77
2023-04-13T20:44:49.211Z,15.80
2023-04-13T20:47:16.493Z,16.07
2023-04-13T20:49:47.164Z,15.90
2023-04-13T20:52:14.162Z,16.10
2023-04-13T20:54:41.493Z,17.63
2023-04-13T20:57:09.389Z,16.57
2023-04-13T20:59:37.399Z,16.60
2023-04-13T21:02:04.901Z,15.80
2023-04-13T21:04:32.135Z,15.73
2023-04-13T21:07:02.141Z,14.20
2023-04-13T21:09:30.222Z,15.83
2023-04-13T21:11:57.585Z,16.00
2023-04-13T21:14:25.460Z,15.03
2023-04-13T21:16:52.593Z,15.30
2023-04-13T21:19:19.952Z,15.00
2023-04-13T21:21:46.829Z,15.40
2023-04-13T21:24:14.005Z,13.53
2023-04-13T21:26:40.759Z,14.40
2023-04-13T21:29:09.028Z,14.67
2023-04-13T21:31:35.904Z,14.27
2023-04-13T21:34:03.962Z,13.27
2023-04-13T21:39:02.781Z,14.10
2023-04-13T21:41:29.731Z,13.83
2023-04-13T21:43:56.790Z,14.40
2023-04-13T21:46:24.347Z,14.23
2023-04-13T21:48:52.199Z,13.45
2023-04-13T21:51:18.990Z,13.17
2023-04-13T21:53:46.024Z,12.70
2023-04-13T21:56:12.732Z,12.87
2023-04-13T21:58:44.408Z,12.60
2023-04-13T22:01:12.922Z,12.63
2023-04-13T22:03:42.153Z,11.87
2023-04-13T22:06:10.696Z,12.27
2023-04-13T22:08:38.252Z,11.67
2023-04-13T22:11:05.556Z,10.97
2023-04-13T22:13:33.089Z,11.20
2023-04-13T22:15:59.893Z,10.77
2023-04-13T22:18:27.692Z,10.77
2023-04-13T22:20:54.579Z,11.47
2023-04-13T22:23:21.599Z,11.00
2023-04-13T22:26:00.789Z,10.70
2023-04-13T22:28:28.814Z,12.70
2023-04-13T22:30:55.825Z,15.40
2023-04-13T22:33:22.932Z,16.00
2023-04-13T22:35:50.643Z,16.70
2023-04-13T22:38:18.681Z,15.87
2023-04-13T22:40:45.831Z,16.27
2023-04-13T22:43:12.945Z,17.70
2023-04-13T22:45:39.976Z,18.73
2023-04-13T22:48:07.414Z,19.47
2023-04-13T22:50:36.877Z,19.50
2023-04-13T22:53:04.055Z,18.60
2023-04-13T22:55:30.892Z,21.73
2023-04-13T22:57:57.868Z,21.87
2023-04-13T23:00:24.895Z,20.50
2023-04-13T23:02:55.745Z,18.97
2023-04-13T23:05:23.219Z,19.70
2023-04-13T23:07:50.661Z,20.03
2023-04-13T23:10:17.938Z,21.90
2023-04-13T23:12:46.162Z,20.47
2023-04-13T23:15:13.617Z,20.53
2023-04-13T23:17:40.831Z,19.97
2023-04-13T23:20:08.133Z,19.73
2023-04-13T23:22:35.273Z,20.40
2023-04-13T23:25:02.088Z,19.58
2023-04-13T23:27:29.205Z,18.50
2023-04-13T23:29:55.987Z,18.57
2023-04-13T23:32:23.181Z,19.27
2023-04-13T23:34:51.164Z,19.13
2023-04-13T23:37:18.350Z,19.88
2023-04-13T23:39:45.085Z,18.08
2023-04-13T23:42:12.349Z,19.43
2023-04-13T23:44:39.119Z,19.97
2023-04-13T23:47:06.333Z,22.17
2023-04-13T23:49:33.110Z,19.53
2023-04-13T23:52:00.296Z,19.77
2023-04-13T23:54:26.990Z,21.00
2023-04-13T23:56:53.996Z,20.87
2023-04-13T23:59:21.037Z,20.70
